sensor_id;sensor_type;location;lat;lon;timestamp;pressure;altitude;pressure_sealevel;temperature;humidity
13456;BME280;6800;50.940;6.940;2023-04-10T00:03:23;101479.41;;;18.43;34.17
13456;BME280;6800;50.940;6.940;2023-04-10T00:07:25;101475.31;;;18.39;34.03
13456;BME280;6800;50.940;6.940;2023-04-10T00:11:26;101477.06;;;18.62;33.65
13456;BME280;6800;50.940;6.940;2023-04-10T00:15:28;101475.41;;;18.61;33.67
13456;BME280;6800;50.940;6.940;2023-04-10T00:19:29;101457.72;;;18.51;34.07
13456;BME280;6800;50.940;6.940;2023-04-10T00:23:30;101461.25;;;18.39;34.12
13456;BME280;6800;50.940;6.940;2023-04-10T00:27:32;101457.84;;;18.60;33.86
13456;BME280;6800;50.940;6.940;2023-04-10T00:31:34;101452.78;;;18.68;33.40
13456;BME280;6800;50.940;6.940;2023-04-10T00:35:35;101455.06;;;18.51;34.09
13456;BME280;6800;50.940;6.940;2023-04-10T00:39:37;101453.63;;;18.69;34.08
13456;BME280;6800;50.940;6.940;2023-04-10T00:43:38;101444.84;;;18.46;34.03
13456;BME280;6800;50.940;6.940;2023-04-10T00:47:39;101445.03;;;18.32;34.49
13456;BME280;6800;50.940;6.940;2023-04-10T00:51:41;101439.69;;;18.45;34.38
13456;BME280;6800;50.940;6.940;2023-04-10T00:55:44;101440.94;;;18.28;34.62
13456;BME280;6800;50.940;6.940;2023-04-10T00:59:45;101436.13;;;18.22;34.73
13456;BME280;6800;50.940;6.940;2023-04-10T01:03:48;101433.63;;;18.32;34.01
13456;BME280;6800;50.940;6.940;2023-04-10T01:08:00;101429.75;;;18.25;34.87
13456;BME280;6800;50.940;6.940;2023-04-10T01:16:18;101421.19;;;17.99;35.26
13456;BME280;6800;50.940;6.940;2023-04-10T01:20:24;101424.34;;;18.15;34.84
13456;BME280;6800;50.940;6.940;2023-04-10T01:24:49;101413.19;;;18.23;35.18
13456;BME280;6800;50.940;6.940;2023-04-10T01:29:08;101408.88;;;18.33;35.01
13456;BME280;6800;50.940;6.940;2023-04-10T01:33:15;101393.38;;;18.17;35.25
13456;BME280;6800;50.940;6.940;2023-04-10T01:37:29;101384.25;;;18.21;35.16
13456;BME280;6800;50.940;6.940;2023-04-10T01:41:32;101383.38;;;18.21;35.10
13456;BME280;6800;50.940;6.940;2023-04-10T01:45:35;101386.16;;;18.19;35.17
13456;BME280;6800;50.940;6.940;2023-04-10T01:49:38;101390.44;;;18.09;35.33
13456;BME280;6800;50.940;6.940;2023-04-10T01:53:44;101379.59;;;17.79;35.51
13456;BME280;6800;50.940;6.940;2023-04-10T01:57:47;101376.59;;;17.94;35.35
13456;BME280;6800;50.940;6.940;2023-04-10T02:01:55;101360.94;;;18.15;35.20
13456;BME280;6800;50.940;6.940;2023-04-10T02:06:10;101369.88;;;17.90;35.43
13456;BME280;6800;50.940;6.940;2023-04-10T02:10:21;101367.50;;;17.99;35.04
13456;BME280;6800;50.940;6.940;2023-04-10T02:14:25;101356.91;;;17.99;35.01
13456;BME280;6800;50.940;6.940;2023-04-10T02:18:33;101352.59;;;17.98;35.16
13456;BME280;6800;50.940;6.940;2023-04-10T02:22:35;101349.09;;;17.86;35.31
13456;BME280;6800;50.940;6.940;2023-04-10T02:26:47;101349.47;;;17.92;34.94
13456;BME280;6800;50.940;6.940;2023-04-10T02:30:49;101347.53;;;17.83;35.31
13456;BME280;6800;50.940;6.940;2023-04-10T02:34:50;101346.81;;;17.92;35.33
13456;BME280;6800;50.940;6.940;2023-04-10T02:38:51;101347.81;;;17.57;35.37
13456;BME280;6800;50.940;6.940;2023-04-10T02:42:53;101358.47;;;17.79;34.94
13456;BME280;6800;50.940;6.940;2023-04-10T02:46:54;101362.81;;;17.91;35.22
13456;BME280;6800;50.940;6.940;2023-04-10T02:50:56;101358.72;;;17.87;34.94
13456;BME280;6800;50.940;6.940;2023-04-10T02:54:58;101350.75;;;17.76;35.57
13456;BME280;6800;50.940;6.940;2023-04-10T02:58:59;101350.97;;;17.62;35.65
13456;BME280;6800;50.940;6.940;2023-04-10T03:03:01;101349.28;;;17.61;35.02
13456;BME280;6800;50.940;6.940;2023-04-10T03:07:03;101339.06;;;17.33;36.09
13456;BME280;6800;50.940;6.940;2023-04-10T03:11:04;101329.97;;;17.71;35.37
13456;BME280;6800;50.940;6.940;2023-04-10T03:15:06;101339.09;;;17.44;35.84
13456;BME280;6800;50.940;6.940;2023-04-10T03:19:08;101339.28;;;17.30;35.79
13456;BME280;6800;50.940;6.940;2023-04-10T03:23:10;101327.16;;;17.51;35.75
13456;BME280;6800;50.940;6.940;2023-04-10T03:27:11;101332.72;;;17.35;36.03
13456;BME280;6800;50.940;6.940;2023-04-10T03:31:13;101318.47;;;17.14;36.35
13456;BME280;6800;50.940;6.940;2023-04-10T03:35:14;101310.19;;;17.42;35.74
13456;BME280;6800;50.940;6.940;2023-04-10T03:39:15;101312.41;;;17.25;36.39
13456;BME280;6800;50.940;6.940;2023-04-10T03:43:17;101302.25;;;17.07;36.67
13456;BME280;6800;50.940;6.940;2023-04-10T03:47:18;101298.72;;;16.96;36.62
13456;BME280;6800;50.940;6.940;2023-04-10T03:51:19;101287.88;;;17.11;36.41
13456;BME280;6800;50.940;6.940;2023-04-10T03:55:21;101284.56;;;17.21;36.31
13456;BME280;6800;50.940;6.940;2023-04-10T03:59:22;101285.66;;;17.29;36.62
13456;BME280;6800;50.940;6.940;2023-04-10T04:03:37;101273.78;;;17.24;36.39
13456;BME280;6800;50.940;6.940;2023-04-10T04:07:39;101278.56;;;16.95;36.90
13456;BME280;6800;50.940;6.940;2023-04-10T04:11:40;101276.13;;;17.04;36.84
13456;BME280;6800;50.940;6.940;2023-04-10T04:15:42;101273.28;;;17.18;36.06
13456;BME280;6800;50.940;6.940;2023-04-10T04:19:44;101276.31;;;17.01;36.83
13456;BME280;6800;50.940;6.940;2023-04-10T04:23:45;101275.09;;;16.94;36.90
13456;BME280;6800;50.940;6.940;2023-04-10T04:27:46;101289.34;;;16.68;37.36
13456;BME280;6800;50.940;6.940;2023-04-10T04:31:48;101287.34;;;16.95;36.89
13456;BME280;6800;50.940;6.940;2023-04-10T04:35:49;101280.22;;;16.85;37.26
13456;BME280;6800;50.940;6.940;2023-04-10T04:39:51;101278.84;;;17.03;36.83
13456;BME280;6800;50.940;6.940;2023-04-10T04:43:52;101280.66;;;16.79;36.89
13456;BME280;6800;50.940;6.940;2023-04-10T04:47:56;101281.66;;;16.89;36.88
13456;BME280;6800;50.940;6.940;2023-04-10T04:51:57;101278.63;;;16.82;36.87
13456;BME280;6800;50.940;6.940;2023-04-10T04:55:58;101277.56;;;17.08;36.14
13456;BME280;6800;50.940;6.940;2023-04-10T05:00:00;101276.38;;;17.12;36.34
13456;BME280;6800;50.940;6.940;2023-04-10T05:04:01;101278.47;;;16.96;36.38
13456;BME280;6800;50.940;6.940;2023-04-10T05:08:03;101276.16;;;16.68;36.75
13456;BME280;6800;50.940;6.940;2023-04-10T05:12:05;101282.44;;;17.02;36.21
13456;BME280;6800;50.940;6.940;2023-04-10T05:16:07;101281.22;;;16.95;36.20
13456;BME280;6800;50.940;6.940;2023-04-10T05:20:09;101277.53;;;17.43;35.68
13456;BME280;6800;50.940;6.940;2023-04-10T05:24:11;101286.72;;;17.15;35.91
13456;BME280;6800;50.940;6.940;2023-04-10T05:28:12;101269.69;;;17.20;35.79
13456;BME280;6800;50.940;6.940;2023-04-10T05:32:13;101277.78;;;17.05;36.01
13456;BME280;6800;50.940;6.940;2023-04-10T05:36:14;101273.69;;;17.60;35.02
13456;BME280;6800;50.940;6.940;2023-04-10T05:40:19;101275.88;;;17.77;35.33
13456;BME280;6800;50.940;6.940;2023-04-10T05:44:20;101281.75;;;17.46;35.35
13456;BME280;6800;50.940;6.940;2023-04-10T05:48:22;101280.06;;;17.90;34.87
13456;BME280;6800;50.940;6.940;2023-04-10T05:52:26;101294.94;;;18.03;34.51
13456;BME280;6800;50.940;6.940;2023-04-10T05:56:27;101283.16;;;17.73;35.37
13456;BME280;6800;50.940;6.940;2023-04-10T06:00:29;101283.81;;;18.21;34.13
13456;BME280;6800;50.940;6.940;2023-04-10T06:04:30;101289.59;;;18.15;34.23
13456;BME280;6800;50.940;6.940;2023-04-10T06:08:32;101290.28;;;18.50;33.20
13456;BME280;6800;50.940;6.940;2023-04-10T06:12:34;101283.53;;;18.13;33.80
13456;BME280;6800;50.940;6.940;2023-04-10T06:16:36;101274.19;;;18.31;33.68
13456;BME280;6800;50.940;6.940;2023-04-10T06:20:37;101277.56;;;18.44;33.59
13456;BME280;6800;50.940;6.940;2023-04-10T06:24:39;101268.53;;;18.90;32.84
13456;BME280;6800;50.940;6.940;2023-04-10T06:28:40;101267.69;;;18.35;33.71
13456;BME280;6800;50.940;6.940;2023-04-10T06:32:42;101252.56;;;19.12;32.60
13456;BME280;6800;50.940;6.940;2023-04-10T06:36:43;101264.09;;;18.47;33.68
13456;BME280;6800;50.940;6.940;2023-04-10T06:40:45;101264.31;;;19.51;31.89
13456;BME280;6800;50.940;6.940;2023-04-10T06:44:46;101262.38;;;20.13;30.79
13456;BME280;6800;50.940;6.940;2023-04-10T06:48:47;101285.19;;;19.12;31.95
13456;BME280;6800;50.940;6.940;2023-04-10T06:52:49;101273.13;;;20.11;30.90
13456;BME280;6800;50.940;6.940;2023-04-10T06:56:50;101269.44;;;20.82;29.49
13456;BME280;6800;50.940;6.940;2023-04-10T07:00:51;101259.06;;;20.60;29.61
13456;BME280;6800;50.940;6.940;2023-04-10T07:04:54;101253.94;;;21.45;28.70
13456;BME280;6800;50.940;6.940;2023-04-10T07:08:56;101252.91;;;22.11;27.18
13456;BME280;6800;50.940;6.940;2023-04-10T07:12:58;101246.13;;;21.15;28.69
13456;BME280;6800;50.940;6.940;2023-04-10T07:17:00;101256.38;;;21.65;27.59
13456;BME280;6800;50.940;6.940;2023-04-10T07:21:01;101247.53;;;22.75;26.82
13456;BME280;6800;50.940;6.940;2023-04-10T07:25:03;101231.16;;;21.89;27.30
13456;BME280;6800;50.940;6.940;2023-04-10T07:29:04;101235.88;;;21.58;27.99
13456;BME280;6800;50.940;6.940;2023-04-10T07:33:06;101231.50;;;21.57;28.23
13456;BME280;6800;50.940;6.940;2023-04-10T07:37:07;101223.41;;;23.89;25.41
13456;BME280;6800;50.940;6.940;2023-04-10T07:41:09;101215.09;;;22.62;26.86
13456;BME280;6800;50.940;6.940;2023-04-10T07:45:12;101213.09;;;22.99;26.17
13456;BME280;6800;50.940;6.940;2023-04-10T07:49:13;101225.38;;;22.75;27.42
13456;BME280;6800;50.940;6.940;2023-04-10T07:53:15;101213.81;;;22.84;27.98
13456;BME280;6800;50.940;6.940;2023-04-10T07:57:16;101206.28;;;22.79;26.80
13456;BME280;6800;50.940;6.940;2023-04-10T08:01:17;101196.22;;;24.27;25.04
13456;BME280;6800;50.940;6.940;2023-04-10T08:05:19;101205.34;;;23.06;25.84
13456;BME280;6800;50.940;6.940;2023-04-10T08:09:20;101194.00;;;23.73;24.90
13456;BME280;6800;50.940;6.940;2023-04-10T08:13:22;101191.00;;;23.76;24.13
13456;BME280;6800;50.940;6.940;2023-04-10T08:17:23;101185.56;;;24.35;24.18
13456;BME280;6800;50.940;6.940;2023-04-10T08:21:26;101187.88;;;22.23;25.96
13456;BME280;6800;50.940;6.940;2023-04-10T08:25:28;101182.13;;;24.67;23.76
13456;BME280;6800;50.940;6.940;2023-04-10T08:29:29;101177.41;;;25.66;22.61
13456;BME280;6800;50.940;6.940;2023-04-10T08:33:30;101172.78;;;24.63;23.27
13456;BME280;6800;50.940;6.940;2023-04-10T08:37:32;101156.78;;;24.87;23.17
13456;BME280;6800;50.940;6.940;2023-04-10T08:41:33;101161.31;;;24.05;23.37
13456;BME280;6800;50.940;6.940;2023-04-10T08:45:35;101161.56;;;25.40;22.41
13456;BME280;6800;50.940;6.940;2023-04-10T08:49:40;101153.47;;;25.64;21.76
13456;BME280;6800;50.940;6.940;2023-04-10T08:53:47;101136.91;;;24.82;22.71
13456;BME280;6800;50.940;6.940;2023-04-10T08:57:50;101131.25;;;26.10;21.45
13456;BME280;6800;50.940;6.940;2023-04-10T09:02:01;101115.63;;;24.08;23.14
13456;BME280;6800;50.940;6.940;2023-04-10T09:06:03;101102.66;;;26.25;21.27
13456;BME280;6800;50.940;6.940;2023-04-10T09:10:06;101107.94;;;26.19;21.23
13456;BME280;6800;50.940;6.940;2023-04-10T09:14:23;101085.81;;;25.09;22.10
13456;BME280;6800;50.940;6.940;2023-04-10T09:22:45;101091.81;;;24.95;22.05
13456;BME280;6800;50.940;6.940;2023-04-10T09:26:47;101089.75;;;25.29;21.90
13456;BME280;6800;50.940;6.940;2023-04-10T09:30:48;101079.28;;;25.03;22.12
13456;BME280;6800;50.940;6.940;2023-04-10T09:34:53;101085.25;;;25.99;20.86
13456;BME280;6800;50.940;6.940;2023-04-10T09:38:57;101097.50;;;24.27;22.55
13456;BME280;6800;50.940;6.940;2023-04-10T09:42:58;101102.34;;;23.82;23.86
13456;BME280;6800;50.940;6.940;2023-04-10T09:47:19;101088.28;;;25.10;22.44
13456;BME280;6800;50.940;6.940;2023-04-10T09:51:35;101085.81;;;24.44;23.25
13456;BME280;6800;50.940;6.940;2023-04-10T09:55:37;101069.47;;;24.96;22.34
13456;BME280;6800;50.940;6.940;2023-04-10T09:59:39;101071.28;;;24.71;22.85
13456;BME280;6800;50.940;6.940;2023-04-10T10:03:43;101057.47;;;27.05;20.67
13456;BME280;6800;50.940;6.940;2023-04-10T10:07:45;101043.16;;;27.42;20.55
13456;BME280;6800;50.940;6.940;2023-04-10T10:11:48;101040.47;;;27.27;20.42
13456;BME280;6800;50.940;6.940;2023-04-10T10:16:03;101033.34;;;26.90;20.38
13456;BME280;6800;50.940;6.940;2023-04-10T10:20:09;101040.28;;;26.25;21.37
13456;BME280;6800;50.940;6.940;2023-04-10T10:24:12;101035.81;;;26.40;21.40
13456;BME280;6800;50.940;6.940;2023-04-10T10:28:14;101032.00;;;26.35;20.82
13456;BME280;6800;50.940;6.940;2023-04-10T10:32:17;101009.41;;;29.62;18.64
13456;BME280;6800;50.940;6.940;2023-04-10T10:36:19;101003.56;;;27.00;20.10
13456;BME280;6800;50.940;6.940;2023-04-10T10:40:26;100988.34;;;28.29;18.79
13456;BME280;6800;50.940;6.940;2023-04-10T10:44:43;100978.59;;;28.28;19.68
13456;BME280;6800;50.940;6.940;2023-04-10T10:48:57;100948.97;;;27.72;19.74
13456;BME280;6800;50.940;6.940;2023-04-10T10:52:59;100945.50;;;27.07;20.25
13456;BME280;6800;50.940;6.940;2023-04-10T10:57:02;100930.53;;;28.33;18.93
13456;BME280;6800;50.940;6.940;2023-04-10T11:01:06;100922.59;;;26.90;20.58
13456;BME280;6800;50.940;6.940;2023-04-10T11:09:52;100910.31;;;26.66;20.73
13456;BME280;6800;50.940;6.940;2023-04-10T11:17:58;100884.91;;;26.77;21.41
13456;BME280;6800;50.940;6.940;2023-04-10T11:22:05;100876.97;;;27.19;20.71
13456;BME280;6800;50.940;6.940;2023-04-10T11:26:07;100867.66;;;26.36;21.54
13456;BME280;6800;50.940;6.940;2023-04-10T11:30:28;100878.06;;;26.60;20.90
13456;BME280;6800;50.940;6.940;2023-04-10T11:34:30;100857.19;;;26.11;21.34
13456;BME280;6800;50.940;6.940;2023-04-10T11:38:33;100849.38;;;27.04;20.68
13456;BME280;6800;50.940;6.940;2023-04-10T11:42:34;100850.88;;;27.28;20.10
13456;BME280;6800;50.940;6.940;2023-04-10T11:46:37;100848.97;;;25.76;21.94
13456;BME280;6800;50.940;6.940;2023-04-10T11:50:39;100830.25;;;27.28;20.37
13456;BME280;6800;50.940;6.940;2023-04-10T11:54:47;100823.97;;;27.00;20.35
13456;BME280;6800;50.940;6.940;2023-04-10T11:58:49;100836.03;;;26.75;20.83
13456;BME280;6800;50.940;6.940;2023-04-10T12:02:54;100827.03;;;25.80;21.83
13456;BME280;6800;50.940;6.940;2023-04-10T12:06:56;100812.03;;;26.52;20.98
13456;BME280;6800;50.940;6.940;2023-04-10T12:10:58;100791.94;;;27.55;19.52
13456;BME280;6800;50.940;6.940;2023-04-10T12:15:00;100786.34;;;27.50;19.65
13456;BME280;6800;50.940;6.940;2023-04-10T12:19:02;100791.94;;;27.13;20.41
13456;BME280;6800;50.940;6.940;2023-04-10T12:23:03;100774.78;;;27.29;19.89
13456;BME280;6800;50.940;6.940;2023-04-10T12:27:05;100765.31;;;27.81;18.86
13456;BME280;6800;50.940;6.940;2023-04-10T12:31:07;100765.59;;;26.45;19.80
13456;BME280;6800;50.940;6.940;2023-04-10T12:35:09;100765.63;;;27.72;18.46
13456;BME280;6800;50.940;6.940;2023-04-10T12:39:21;100755.81;;;27.30;18.47
13456;BME280;6800;50.940;6.940;2023-04-10T12:43:37;100747.00;;;28.26;17.18
13456;BME280;6800;50.940;6.940;2023-04-10T12:47:43;100754.78;;;27.52;18.05
13456;BME280;6800;50.940;6.940;2023-04-10T12:51:48;100746.56;;;27.12;18.25
13456;BME280;6800;50.940;6.940;2023-04-10T12:55:57;100746.50;;;27.05;18.32
13456;BME280;6800;50.940;6.940;2023-04-10T12:59:59;100734.50;;;26.80;18.43
13456;BME280;6800;50.940;6.940;2023-04-10T13:04:03;100740.09;;;27.76;17.98
13456;BME280;6800;50.940;6.940;2023-04-10T13:08:04;100716.75;;;26.79;19.06
13456;BME280;6800;50.940;6.940;2023-04-10T13:12:06;100721.56;;;27.88;18.38
13456;BME280;6800;50.940;6.940;2023-04-10T13:16:08;100718.41;;;27.22;18.48
13456;BME280;6800;50.940;6.940;2023-04-10T13:20:12;100697.16;;;27.82;18.53
13456;BME280;6800;50.940;6.940;2023-04-10T13:24:14;100692.13;;;28.48;18.58
13456;BME280;6800;50.940;6.940;2023-04-10T13:28:17;100686.56;;;28.56;18.60
13456;BME280;6800;50.940;6.940;2023-04-10T13:32:19;100685.19;;;29.12;17.46
13456;BME280;6800;50.940;6.940;2023-04-10T13:36:21;100672.38;;;29.27;16.16
13456;BME280;6800;50.940;6.940;2023-04-10T13:40:22;100654.31;;;28.56;16.75
13456;BME280;6800;50.940;6.940;2023-04-10T13:44:24;100653.28;;;28.57;16.70
13456;BME280;6800;50.940;6.940;2023-04-10T13:48:25;100634.88;;;28.47;16.73
13456;BME280;6800;50.940;6.940;2023-04-10T13:52:40;100638.56;;;27.45;17.01
13456;BME280;6800;50.940;6.940;2023-04-10T13:56:42;100624.59;;;27.56;16.95
13456;BME280;6800;50.940;6.940;2023-04-10T14:00:44;100617.91;;;27.39;17.02
13456;BME280;6800;50.940;6.940;2023-04-10T14:04:46;100611.28;;;27.35;17.55
13456;BME280;6800;50.940;6.940;2023-04-10T14:08:47;100603.44;;;27.13;17.70
13456;BME280;6800;50.940;6.940;2023-04-10T14:12:49;100589.44;;;27.86;16.47
13456;BME280;6800;50.940;6.940;2023-04-10T14:16:50;100591.59;;;28.10;16.89
13456;BME280;6800;50.940;6.940;2023-04-10T14:20:52;100603.09;;;28.77;16.35
13456;BME280;6800;50.940;6.940;2023-04-10T14:24:53;100582.53;;;28.17;16.76
13456;BME280;6800;50.940;6.940;2023-04-10T14:29:09;100576.97;;;28.38;16.47
13456;BME280;6800;50.940;6.940;2023-04-10T14:33:11;100554.47;;;28.39;16.95
13456;BME280;6800;50.940;6.940;2023-04-10T14:37:12;100564.31;;;27.18;17.54
13456;BME280;6800;50.940;6.940;2023-04-10T14:41:16;100555.47;;;27.58;17.15
13456;BME280;6800;50.940;6.940;2023-04-10T14:45:17;100550.47;;;28.03;17.27
13456;BME280;6800;50.940;6.940;2023-04-10T14:49:19;100527.31;;;27.35;17.76
13456;BME280;6800;50.940;6.940;2023-04-10T14:53:21;100531.47;;;28.04;17.26
13456;BME280;6800;50.940;6.940;2023-04-10T14:57:23;100515.19;;;28.51;16.76
13456;BME280;6800;50.940;6.940;2023-04-10T15:01:24;100525.53;;;28.28;17.42
13456;BME280;6800;50.940;6.940;2023-04-10T15:05:26;100529.41;;;27.39;18.12
13456;BME280;6800;50.940;6.940;2023-04-10T15:09:28;100545.97;;;27.22;18.73
13456;BME280;6800;50.940;6.940;2023-04-10T15:13:29;100531.44;;;27.37;18.95
13456;BME280;6800;50.940;6.940;2023-04-10T15:17:30;100537.16;;;27.75;18.79
13456;BME280;6800;50.940;6.940;2023-04-10T15:21:32;100537.97;;;27.69;18.87
13456;BME280;6800;50.940;6.940;2023-04-10T15:25:34;100529.47;;;27.59;18.79
13456;BME280;6800;50.940;6.940;2023-04-10T15:29:41;100542.25;;;27.50;19.79
13456;BME280;6800;50.940;6.940;2023-04-10T15:33:43;100545.22;;;27.34;19.95
13456;BME280;6800;50.940;6.940;2023-04-10T15:37:44;100528.50;;;27.32;19.73
13456;BME280;6800;50.940;6.940;2023-04-10T15:41:45;100517.13;;;27.30;20.27
13456;BME280;6800;50.940;6.940;2023-04-10T15:45:50;100519.25;;;27.89;20.07
13456;BME280;6800;50.940;6.940;2023-04-10T15:49:51;100511.16;;;27.28;20.37
13456;BME280;6800;50.940;6.940;2023-04-10T15:53:53;100527.56;;;26.78;21.10
13456;BME280;6800;50.940;6.940;2023-04-10T15:57:55;100508.41;;;26.81;21.25
13456;BME280;6800;50.940;6.940;2023-04-10T16:01:56;100500.56;;;26.79;21.39
13456;BME280;6800;50.940;6.940;2023-04-10T16:05:58;100502.50;;;26.15;21.94
13456;BME280;6800;50.940;6.940;2023-04-10T16:09:59;100495.88;;;26.11;22.46
13456;BME280;6800;50.940;6.940;2023-04-10T16:14:00;100507.91;;;25.65;23.25
13456;BME280;6800;50.940;6.940;2023-04-10T16:18:03;100498.59;;;25.97;23.26
13456;BME280;6800;50.940;6.940;2023-04-10T16:22:04;100493.38;;;26.10;23.44
13456;BME280;6800;50.940;6.940;2023-04-10T16:26:06;100489.84;;;25.88;24.33
13456;BME280;6800;50.940;6.940;2023-04-10T16:30:07;100501.09;;;26.19;24.61
13456;BME280;6800;50.940;6.940;2023-04-10T16:34:09;100488.06;;;25.95;25.96
13456;BME280;6800;50.940;6.940;2023-04-10T16:38:10;100493.03;;;25.41;27.91
13456;BME280;6800;50.940;6.940;2023-04-10T16:42:12;100450.84;;;24.93;28.09
13456;BME280;6800;50.940;6.940;2023-04-10T16:46:13;100464.47;;;25.13;28.65
13456;BME280;6800;50.940;6.940;2023-04-10T16:50:15;100446.72;;;24.76;29.14
13456;BME280;6800;50.940;6.940;2023-04-10T16:54:16;100431.66;;;24.60;28.09
13456;BME280;6800;50.940;6.940;2023-04-10T16:58:17;100402.69;;;24.87;28.70
13456;BME280;6800;50.940;6.940;2023-04-10T17:02:19;100395.47;;;24.43;28.35
13456;BME280;6800;50.940;6.940;2023-04-10T17:06:20;100393.00;;;24.71;28.25
13456;BME280;6800;50.940;6.940;2023-04-10T17:10:22;100373.50;;;24.70;28.12
13456;BME280;6800;50.940;6.940;2023-04-10T17:14:24;100359.75;;;24.59;28.07
13456;BME280;6800;50.940;6.940;2023-04-10T17:18:25;100350.56;;;24.47;28.18
13456;BME280;6800;50.940;6.940;2023-04-10T17:22:27;100345.25;;;24.32;27.60
13456;BME280;6800;50.940;6.940;2023-04-10T17:26:29;100351.91;;;25.01;26.30
13456;BME280;6800;50.940;6.940;2023-04-10T17:30:30;100346.88;;;24.92;26.38
13456;BME280;6800;50.940;6.940;2023-04-10T17:34:32;100340.53;;;24.78;25.87
13456;BME280;6800;50.940;6.940;2023-04-10T17:38:34;100326.06;;;24.72;26.03
13456;BME280;6800;50.940;6.940;2023-04-10T17:42:37;100321.88;;;24.99;25.79
13456;BME280;6800;50.940;6.940;2023-04-10T17:46:38;100309.34;;;24.49;26.34
13456;BME280;6800;50.940;6.940;2023-04-10T17:50:40;100314.28;;;24.52;26.44
13456;BME280;6800;50.940;6.940;2023-04-10T17:54:41;100319.44;;;24.83;26.48
13456;BME280;6800;50.940;6.940;2023-04-10T17:58:43;100313.94;;;25.06;26.49
13456;BME280;6800;50.940;6.940;2023-04-10T18:02:44;100315.13;;;25.03;25.81
13456;BME280;6800;50.940;6.940;2023-04-10T18:06:46;100327.00;;;24.21;27.48
13456;BME280;6800;50.940;6.940;2023-04-10T18:10:47;100312.09;;;25.06;25.97
13456;BME280;6800;50.940;6.940;2023-04-10T18:14:49;100318.06;;;24.72;26.89
13456;BME280;6800;50.940;6.940;2023-04-10T18:18:50;100318.41;;;24.84;26.42
13456;BME280;6800;50.940;6.940;2023-04-10T18:22:52;100327.75;;;25.30;26.72
13456;BME280;6800;50.940;6.940;2023-04-10T18:26:53;100321.00;;;24.77;26.96
13456;BME280;6800;50.940;6.940;2023-04-10T18:30:55;100334.88;;;25.02;27.38
13456;BME280;6800;50.940;6.940;2023-04-10T18:34:59;100350.44;;;24.99;27.89
13456;BME280;6800;50.940;6.940;2023-04-10T18:39:00;100332.25;;;24.88;29.13
13456;BME280;6800;50.940;6.940;2023-04-10T18:43:02;100328.50;;;25.03;29.63
13456;BME280;6800;50.940;6.940;2023-04-10T18:47:03;100333.75;;;24.97;29.33
13456;BME280;6800;50.940;6.940;2023-04-10T18:51:05;100333.25;;;24.87;29.93
13456;BME280;6800;50.940;6.940;2023-04-10T18:55:07;100341.72;;;25.11;29.47
13456;BME280;6800;50.940;6.940;2023-04-10T18:59:08;100356.19;;;24.81;30.55
13456;BME280;6800;50.940;6.940;2023-04-10T19:03:09;100346.78;;;24.56;33.34
13456;BME280;6800;50.940;6.940;2023-04-10T19:07:11;100354.97;;;24.84;33.70
13456;BME280;6800;50.940;6.940;2023-04-10T19:11:12;100345.22;;;24.61;33.40
13456;BME280;6800;50.940;6.940;2023-04-10T19:15:14;100356.72;;;24.47;34.08
13456;BME280;6800;50.940;6.940;2023-04-10T19:19:15;100373.00;;;24.23;35.08
13456;BME280;6800;50.940;6.940;2023-04-10T19:23:17;100379.34;;;24.22;35.27
13456;BME280;6800;50.940;6.940;2023-04-10T19:27:18;100387.81;;;24.11;36.64
13456;BME280;6800;50.940;6.940;2023-04-10T19:31:19;100392.31;;;23.88;37.61
13456;BME280;6800;50.940;6.940;2023-04-10T19:35:21;100389.84;;;23.64;37.62
13456;BME280;6800;50.940;6.940;2023-04-10T19:39:22;100384.28;;;23.51;38.49
13456;BME280;6800;50.940;6.940;2023-04-10T19:43:24;100383.28;;;23.52;39.05
13456;BME280;6800;50.940;6.940;2023-04-10T19:47:25;100379.00;;;23.43;40.42
13456;BME280;6800;50.940;6.940;2023-04-10T19:51:27;100391.13;;;23.14;40.95
13456;BME280;6800;50.940;6.940;2023-04-10T19:55:28;100390.03;;;22.62;42.52
13456;BME280;6800;50.940;6.940;2023-04-10T19:59:29;100384.72;;;22.62;42.72
13456;BME280;6800;50.940;6.940;2023-04-10T20:03:31;100388.16;;;22.79;42.72
13456;BME280;6800;50.940;6.940;2023-04-10T20:07:33;100392.56;;;22.39;43.49
13456;BME280;6800;50.940;6.940;2023-04-10T20:11:35;100401.78;;;22.76;42.72
13456;BME280;6800;50.940;6.940;2023-04-10T20:15:37;100393.25;;;22.25;43.78
13456;BME280;6800;50.940;6.940;2023-04-10T20:19:38;100410.06;;;22.26;44.30
13456;BME280;6800;50.940;6.940;2023-04-10T20:23:40;100419.03;;;21.85;45.65
13456;BME280;6800;50.940;6.940;2023-04-10T20:27:41;100414.84;;;21.74;45.94
13456;BME280;6800;50.940;6.940;2023-04-10T20:31:43;100424.59;;;21.33;46.59
13456;BME280;6800;50.940;6.940;2023-04-10T20:35:44;100438.22;;;21.46;45.25
13456;BME280;6800;50.940;6.940;2023-04-10T20:39:47;100437.44;;;21.62;45.39
13456;BME280;6800;50.940;6.940;2023-04-10T20:43:48;100437.38;;;21.38;45.36
13456;BME280;6800;50.940;6.940;2023-04-10T20:47:50;100444.38;;;21.55;45.70
13456;BME280;6800;50.940;6.940;2023-04-10T20:51:51;100414.78;;;21.26;45.40
13456;BME280;6800;50.940;6.940;2023-04-10T20:55:53;100405.63;;;21.12;44.97
13456;BME280;6800;50.940;6.940;2023-04-10T20:59:54;100403.59;;;21.06;45.66
13456;BME280;6800;50.940;6.940;2023-04-10T21:03:56;100421.84;;;21.09;45.38
13456;BME280;6800;50.940;6.940;2023-04-10T21:07:59;100422.69;;;21.10;46.07
13456;BME280;6800;50.940;6.940;2023-04-10T21:12:00;100415.53;;;20.76;46.11
13456;BME280;6800;50.940;6.940;2023-04-10T21:16:01;100416.63;;;20.99;45.47
13456;BME280;6800;50.940;6.940;2023-04-10T21:20:04;100400.00;;;21.23;45.16
13456;BME280;6800;50.940;6.940;2023-04-10T21:24:05;100389.34;;;21.15;45.55
13456;BME280;6800;50.940;6.940;2023-04-10T21:28:06;100373.25;;;21.17;45.93
13456;BME280;6800;50.940;6.940;2023-04-10T21:32:08;100373.41;;;21.07;46.03
13456;BME280;6800;50.940;6.940;2023-04-10T21:36:10;100372.69;;;20.97;46.17
13456;BME280;6800;50.940;6.940;2023-04-10T21:40:11;100341.44;;;20.83;46.17
13456;BME280;6800;50.940;6.940;2023-04-10T21:44:12;100356.28;;;20.60;46.23